Terminal Aerodrome Forecast
Issued by NWS Anchorage, AK

Home | Current Version | Previous Version | Text Only | Print | Product List | Glossary On
Versions: 1 2 3 4 5 6 7 8 9 10 11 12 13 14 15 16 17 18 19
000
FTAK31 PANC 011738
TAFANC
TAF
PANC 011738Z 0118/0224 VRB03KT P6SM VCSH BKN060
     FM020000 16015G25KT P6SM VCSH SCT030 BKN060
     FM020700 16007KT P6SM SCT050 BKN100
     FM022200 16010G17KT P6SM BKN080=

USA.gov is the U.S. government's official web portal to all federal, state and local government web resources and services.